createdAt,value
2022-08-14T00:02:31.517Z,50.04
2022-08-14T00:05:00.293Z,50.08
2022-08-14T00:07:28.964Z,50.21
2022-08-14T00:10:50.330Z,50.27
2022-08-14T00:12:53.331Z,50.43
2022-08-14T00:15:29.627Z,50.12
2022-08-14T00:18:00.170Z,50.30
2022-08-14T00:20:35.947Z,50.59
2022-08-14T00:23:16.617Z,50.61
2022-08-14T00:25:54.016Z,50.64
2022-08-14T00:28:32.574Z,50.59
2022-08-14T00:31:05.124Z,50.70
2022-08-14T00:33:52.084Z,50.73
2022-08-14T00:36:37.003Z,50.96
2022-08-14T00:39:18.216Z,50.97
2022-08-14T00:41:48.346Z,51.26
2022-08-14T00:44:21.512Z,51.19
2022-08-14T00:47:01.027Z,51.21
2022-08-14T00:49:37.779Z,51.42
2022-08-14T00:52:14.147Z,51.52
2022-08-14T00:54:58.066Z,51.68
2022-08-14T00:57:28.746Z,51.52
2022-08-14T00:59:57.682Z,51.85
2022-08-14T01:02:28.251Z,51.83
2022-08-14T01:05:05.085Z,52.02
2022-08-14T01:07:47.296Z,52.00
2022-08-14T01:10:22.499Z,52.04
2022-08-14T01:12:51.934Z,51.99
2022-08-14T01:15:31.642Z,52.07
2022-08-14T01:18:28.785Z,52.16
2022-08-14T01:21:09.182Z,52.25
2022-08-14T01:23:47.021Z,52.46
2022-08-14T01:26:23.566Z,52.41
2022-08-14T01:29:06.666Z,52.52
2022-08-14T01:31:42.326Z,52.62
2022-08-14T01:35:18.819Z,52.47
2022-08-14T01:36:59.320Z,52.72
2022-08-14T01:39:32.253Z,52.82
2022-08-14T01:42:01.478Z,52.94
2022-08-14T01:44:33.655Z,52.88
2022-08-14T01:47:21.891Z,52.80
2022-08-14T01:50:00.048Z,52.84
2022-08-14T01:52:58.719Z,53.07
2022-08-14T01:55:29.408Z,53.05
2022-08-14T01:58:18.848Z,52.97
2022-08-14T02:00:47.941Z,53.03
2022-08-14T02:03:17.274Z,53.04
2022-08-14T02:05:46.204Z,53.10
2022-08-14T02:08:16.088Z,53.20
2022-08-14T02:11:16.066Z,52.99
2022-08-14T02:13:50.624Z,53.12
2022-08-14T02:16:24.245Z,53.30
2022-08-14T02:18:57.498Z,53.21
2022-08-14T02:21:27.444Z,53.30
2022-08-14T02:23:57.377Z,53.60
2022-08-14T02:26:30.825Z,53.51
2022-08-14T02:29:03.445Z,53.52
2022-08-14T02:31:43.864Z,53.49
2022-08-14T02:34:22.384Z,53.84
2022-08-14T02:37:04.765Z,53.83
2022-08-14T02:39:36.961Z,53.63
2022-08-14T02:42:13.102Z,53.84
2022-08-14T02:44:49.320Z,53.89
2022-08-14T02:47:21.246Z,54.16
2022-08-14T02:49:56.765Z,54.65
2022-08-14T02:52:57.520Z,55.34
2022-08-14T02:55:20.440Z,55.43
2022-08-14T02:58:03.226Z,55.43
2022-08-14T03:00:35.632Z,55.49
2022-08-14T03:03:08.960Z,54.99
2022-08-14T03:05:41.099Z,53.58
2022-08-14T03:08:15.346Z,53.96
2022-08-14T03:10:49.235Z,53.60
2022-08-14T03:13:21.463Z,52.99
2022-08-14T03:15:56.099Z,53.01
2022-08-14T03:18:32.074Z,53.16
2022-08-14T03:21:03.833Z,53.07
2022-08-14T03:23:38.181Z,52.49
2022-08-14T03:26:12.723Z,52.45
2022-08-14T03:28:51.375Z,52.17
2022-08-14T03:31:26.150Z,53.04
2022-08-14T03:34:00.316Z,52.63
2022-08-14T03:37:38.474Z,52.85
2022-08-14T03:39:24.272Z,52.16
2022-08-14T03:41:59.946Z,52.36
2022-08-14T03:45:26.875Z,52.46
2022-08-14T03:47:22.832Z,52.58
2022-08-14T03:50:12.644Z,52.62
2022-08-14T03:52:55.986Z,52.40
2022-08-14T03:55:26.194Z,52.29
2022-08-14T03:57:56.039Z,52.19
2022-08-14T04:00:42.921Z,52.37
2022-08-14T04:03:23.585Z,52.91
2022-08-14T04:05:53.129Z,52.40
2022-08-14T04:08:29.176Z,52.50
2022-08-14T04:11:01.330Z,52.53
2022-08-14T04:13:31.900Z,52.77
2022-08-14T04:16:10.047Z,52.44
2022-08-14T04:18:43.712Z,52.26
2022-08-14T04:21:13.179Z,52.01
2022-08-14T04:23:43.959Z,52.33
2022-08-14T04:26:14.303Z,52.01
2022-08-14T04:29:08.008Z,52.08
2022-08-14T04:32:57.439Z,52.25
2022-08-14T04:34:27.842Z,52.81
2022-08-14T04:37:21.937Z,52.87
2022-08-14T04:40:08.751Z,52.34
2022-08-14T04:42:56.257Z,52.43
2022-08-14T04:45:25.861Z,52.18
2022-08-14T04:48:36.806Z,52.33
2022-08-14T04:51:05.235Z,52.89
2022-08-14T04:53:35.976Z,52.91
2022-08-14T04:56:30.018Z,52.89
2022-08-14T04:58:57.754Z,53.34
2022-08-14T05:01:27.209Z,53.40
2022-08-14T05:03:57.534Z,53.37
2022-08-14T05:06:37.678Z,53.11
2022-08-14T05:09:13.869Z,52.95
2022-08-14T05:11:44.289Z,53.02
2022-08-14T05:14:43.080Z,53.09
2022-08-14T05:17:02.440Z,53.14
2022-08-14T05:19:33.010Z,53.03
2022-08-14T05:22:16.855Z,53.06
2022-08-14T05:24:50.604Z,52.97
2022-08-14T05:27:22.942Z,51.87
2022-08-14T05:29:56.670Z,51.88
2022-08-14T05:32:27.152Z,51.91
2022-08-14T05:34:59.321Z,51.63
2022-08-14T05:37:29.821Z,51.44
2022-08-14T05:40:01.084Z,51.16
2022-08-14T05:42:34.005Z,50.29
2022-08-14T05:45:20.875Z,50.30
2022-08-14T05:47:50.715Z,50.34
2022-08-14T05:50:20.996Z,50.19
2022-08-14T05:52:51.501Z,50.10
2022-08-14T05:55:22.231Z,49.82
2022-08-14T05:57:59.499Z,49.63
2022-08-14T06:00:31.687Z,49.47
2022-08-14T06:03:07.338Z,49.96
2022-08-14T06:05:39.630Z,49.49
2022-08-14T06:08:31.469Z,49.01
2022-08-14T06:11:07.556Z,49.27
2022-08-14T06:13:45.359Z,47.99
2022-08-14T06:16:18.378Z,48.59
2022-08-14T06:18:52.583Z,47.46
2022-08-14T06:21:24.061Z,47.31
2022-08-14T06:23:53.022Z,47.60
2022-08-14T06:26:22.499Z,47.34
2022-08-14T06:28:52.022Z,47.36
2022-08-14T06:31:23.007Z,47.17
2022-08-14T06:35:02.717Z,47.21
2022-08-14T06:36:42.333Z,46.92
2022-08-14T06:39:10.981Z,46.56
2022-08-14T06:41:59.319Z,45.89
2022-08-14T06:44:30.616Z,45.74
2022-08-14T06:47:03.350Z,45.66
2022-08-14T06:49:40.089Z,45.64
2022-08-14T06:52:10.068Z,44.84
2022-08-14T06:54:43.955Z,44.27
2022-08-14T06:57:13.842Z,45.11
2022-08-14T06:59:43.193Z,45.30
2022-08-14T07:02:29.349Z,44.50
2022-08-14T07:05:17.051Z,44.35
2022-08-14T07:07:51.304Z,43.45
2022-08-14T07:10:25.009Z,43.39
2022-08-14T07:13:03.733Z,42.59
2022-08-14T07:15:39.697Z,43.03
2022-08-14T07:18:12.305Z,41.73
2022-08-14T07:20:42.145Z,42.24
2022-08-14T07:23:20.543Z,41.24
2022-08-14T07:25:51.377Z,41.80
2022-08-14T07:28:25.120Z,41.73
2022-08-14T07:31:05.283Z,40.58
2022-08-14T07:33:37.518Z,41.01
2022-08-14T07:36:26.922Z,41.42
2022-08-14T07:39:00.811Z,41.80
2022-08-14T07:41:35.614Z,40.00
2022-08-14T07:44:32.226Z,39.89
2022-08-14T07:46:53.931Z,40.53
2022-08-14T07:49:24.073Z,40.35
2022-08-14T07:51:53.028Z,40.07
2022-08-14T07:54:30.300Z,39.24
2022-08-14T07:57:00.648Z,39.60
2022-08-14T07:59:41.096Z,40.11
2022-08-14T08:02:17.448Z,39.67
2022-08-14T08:04:53.001Z,40.21
2022-08-14T08:07:30.211Z,40.10
2022-08-14T08:10:46.658Z,37.23
2022-08-14T08:13:14.833Z,36.91
2022-08-14T08:15:46.453Z,36.58
2022-08-14T08:18:20.554Z,36.64
2022-08-14T08:21:00.156Z,37.41
2022-08-14T08:23:40.917Z,36.30
2022-08-14T08:26:20.777Z,36.00
2022-08-14T08:28:57.257Z,35.60
2022-08-14T08:31:32.912Z,34.89
2022-08-14T08:34:06.511Z,34.59
2022-08-14T08:36:42.736Z,33.24
2022-08-14T08:39:21.965Z,33.33
2022-08-14T08:41:53.890Z,33.38
2022-08-14T08:44:31.828Z,32.71
2022-08-14T08:47:06.533Z,34.03
2022-08-14T08:49:48.707Z,34.81
2022-08-14T08:52:31.686Z,33.42
2022-08-14T08:55:04.362Z,33.95
2022-08-14T08:57:38.101Z,33.36
2022-08-14T09:00:25.683Z,32.83
2022-08-14T09:02:57.725Z,32.44
2022-08-14T09:05:26.845Z,32.77
2022-08-14T09:07:56.382Z,33.09
2022-08-14T09:10:25.916Z,31.72
2022-08-14T09:12:57.552Z,31.93
2022-08-14T09:15:26.250Z,31.35
2022-08-14T09:18:05.524Z,30.97
2022-08-14T09:20:34.604Z,30.65
2022-08-14T09:23:06.451Z,30.33
2022-08-14T09:25:58.753Z,30.33
2022-08-14T09:28:26.612Z,29.33
2022-08-14T09:30:58.667Z,28.76
2022-08-14T09:34:02.160Z,28.56
2022-08-14T09:37:09.177Z,27.33
2022-08-14T09:39:54.028Z,26.60
2022-08-14T09:42:33.551Z,26.56
2022-08-14T09:45:21.080Z,25.66
2022-08-14T09:47:51.854Z,25.62
2022-08-14T09:50:26.023Z,25.00
2022-08-14T09:52:59.227Z,24.88
2022-08-14T09:55:36.821Z,25.02
2022-08-14T09:58:15.007Z,25.45
2022-08-14T10:00:52.758Z,25.59
2022-08-14T10:03:34.257Z,25.77
2022-08-14T10:06:08.763Z,26.16
2022-08-14T10:08:51.062Z,25.98
2022-08-14T10:11:23.723Z,26.44
2022-08-14T10:13:55.759Z,26.02
2022-08-14T10:16:33.522Z,24.94
2022-08-14T10:19:09.534Z,25.77
2022-08-14T10:23:11.330Z,25.71
2022-08-14T10:24:36.839Z,25.65
2022-08-14T10:27:16.479Z,26.33
2022-08-14T10:29:46.326Z,25.56
2022-08-14T10:32:18.211Z,25.48
2022-08-14T10:35:09.269Z,26.80
2022-08-14T10:37:46.871Z,26.46
2022-08-14T10:40:37.506Z,26.38
2022-08-14T10:43:18.854Z,26.88
2022-08-14T10:46:04.083Z,26.43
2022-08-14T10:49:00.333Z,24.34
2022-08-14T10:51:34.161Z,25.92
2022-08-14T10:54:26.031Z,24.77
2022-08-14T10:56:58.540Z,25.41
2022-08-14T10:59:31.342Z,25.06
2022-08-14T11:02:04.875Z,26.58
2022-08-14T11:04:35.766Z,26.94
2022-08-14T11:07:19.290Z,26.60
2022-08-14T11:09:55.722Z,25.81
2022-08-14T11:12:34.419Z,25.99
2022-08-14T11:15:12.717Z,26.58
2022-08-14T11:17:46.073Z,26.60
2022-08-14T11:20:18.043Z,27.70
2022-08-14T11:22:55.656Z,27.06
2022-08-14T11:25:43.257Z,27.81
2022-08-14T11:28:19.038Z,28.69
2022-08-14T11:30:54.387Z,28.56
2022-08-14T11:33:24.739Z,28.22
2022-08-14T11:35:59.690Z,28.72
2022-08-14T11:38:29.315Z,28.40
2022-08-14T11:41:00.276Z,28.81
2022-08-14T11:43:30.678Z,28.75
2022-08-14T11:46:03.519Z,28.92
2022-08-14T11:49:01.789Z,28.88
2022-08-14T11:51:30.664Z,28.83
2022-08-14T11:54:08.413Z,29.53
2022-08-14T11:56:39.865Z,29.67
2022-08-14T11:59:16.794Z,30.03
2022-08-14T12:01:46.351Z,30.08
2022-08-14T16:17:00.758Z,32.33
2022-08-14T16:19:32.641Z,32.91
2022-08-14T16:22:59.137Z,31.85
2022-08-14T16:25:04.668Z,32.30
2022-08-14T16:27:39.258Z,32.71
2022-08-14T16:30:25.395Z,31.55
2022-08-14T16:33:01.913Z,31.96
2022-08-14T16:35:42.310Z,32.33
2022-08-14T16:38:44.775Z,33.30
2022-08-14T16:41:37.535Z,33.44
2022-08-14T16:44:13.780Z,34.05
2022-08-14T16:47:00.406Z,34.51
2022-08-14T16:49:35.319Z,34.29
2022-08-14T16:52:26.541Z,34.24
2022-08-14T16:55:11.115Z,34.56
2022-08-14T16:57:50.124Z,34.07
2022-08-14T17:00:32.593Z,34.65
2022-08-14T17:03:08.568Z,35.08
2022-08-14T17:05:43.719Z,34.62
2022-08-14T17:08:33.278Z,35.14
2022-08-14T17:11:11.089Z,35.67
2022-08-14T17:13:58.189Z,35.53
2022-08-14T17:16:37.737Z,36.45
2022-08-14T17:19:13.546Z,36.48
2022-08-14T17:21:47.340Z,37.29
2022-08-14T17:24:57.701Z,37.50
2022-08-14T17:27:07.999Z,36.98
2022-08-14T17:29:44.302Z,35.82
2022-08-14T17:35:12.413Z,35.76
2022-08-14T17:37:55.774Z,36.61
2022-08-14T17:40:31.583Z,35.41
2022-08-14T17:43:02.473Z,35.20
2022-08-14T17:45:46.882Z,36.67
2022-08-14T17:49:10.514Z,35.51
2022-08-14T17:51:24.185Z,35.81
2022-08-14T17:54:02.654Z,36.50
2022-08-14T17:56:33.991Z,36.83
2022-08-14T17:59:07.241Z,36.33
2022-08-14T18:01:40.855Z,37.36
2022-08-14T18:04:25.016Z,37.09
2022-08-14T18:07:16.608Z,37.19
2022-08-14T18:09:57.143Z,37.88
2022-08-14T18:12:36.629Z,37.90
2022-08-14T18:15:14.311Z,37.53
2022-08-14T18:17:45.140Z,37.96
2022-08-14T18:21:23.626Z,38.39
2022-08-14T18:23:12.905Z,38.57
2022-08-14T18:25:49.796Z,38.57
2022-08-14T18:28:47.847Z,38.24
2022-08-14T18:31:42.345Z,37.57
2022-08-14T18:34:32.102Z,37.07
2022-08-14T18:37:18.024Z,37.14
2022-08-14T18:40:01.676Z,36.84
2022-08-14T18:42:46.604Z,36.78
2022-08-14T18:45:26.326Z,37.09
2022-08-14T18:48:50.552Z,37.07
2022-08-14T18:51:45.313Z,36.78
2022-08-14T18:54:33.231Z,37.34
2022-08-14T18:57:05.395Z,36.91
2022-08-14T18:59:43.144Z,37.08
2022-08-14T19:02:43.407Z,37.17
2022-08-14T19:05:14.315Z,37.23
2022-08-14T19:07:48.170Z,37.71
2022-08-14T19:10:31.928Z,37.21
2022-08-14T19:13:11.956Z,37.52
2022-08-14T19:15:45.627Z,37.48
2022-08-14T19:18:27.856Z,37.49
2022-08-14T19:20:59.042Z,38.11
2022-08-14T19:23:42.272Z,37.85
2022-08-14T19:26:35.281Z,37.66
2022-08-14T19:29:26.198Z,38.30
2022-08-14T19:32:27.874Z,38.39
2022-08-14T19:34:59.879Z,38.24
2022-08-14T19:37:52.618Z,37.86
2022-08-14T19:40:33.386Z,38.28
2022-08-14T19:43:09.088Z,38.25
2022-08-14T19:45:39.328Z,38.94
2022-08-14T19:48:16.007Z,39.42
2022-08-14T19:50:47.092Z,40.00
2022-08-14T19:53:17.719Z,40.01
2022-08-14T19:55:59.803Z,40.35
2022-08-14T19:58:53.986Z,40.40
2022-08-14T20:01:36.490Z,39.34
2022-08-14T20:04:46.726Z,39.98
2022-08-14T20:07:04.390Z,40.25
2022-08-14T20:11:06.479Z,40.14
2022-08-14T20:12:35.375Z,40.42
2022-08-14T20:15:15.567Z,40.09
2022-08-14T20:17:52.560Z,40.19
2022-08-14T20:20:30.667Z,39.94
2022-08-14T20:23:10.836Z,40.30
2022-08-14T20:25:45.613Z,40.57
2022-08-14T20:28:32.095Z,40.29
2022-08-14T20:31:22.274Z,40.88
2022-08-14T20:34:03.643Z,41.32
2022-08-14T20:36:33.957Z,40.17
2022-08-14T20:39:04.121Z,40.52
2022-08-14T20:41:34.232Z,40.95
2022-08-14T20:44:28.803Z,40.57
2022-08-14T20:47:01.122Z,40.79
2022-08-14T20:49:30.432Z,40.50
2022-08-14T20:52:19.712Z,40.76
2022-08-14T20:54:51.679Z,41.07
2022-08-14T20:57:20.630Z,41.26
2022-08-14T20:59:52.935Z,41.53
2022-08-14T21:02:46.694Z,41.80
2022-08-14T21:05:22.497Z,41.81
2022-08-14T21:08:09.667Z,42.46
2022-08-14T21:10:54.915Z,42.12
2022-08-14T21:14:20.849Z,42.82
2022-08-14T21:16:33.239Z,42.65
2022-08-14T21:19:05.945Z,42.58
2022-08-14T21:21:40.457Z,42.45
2022-08-14T21:24:38.965Z,42.56
2022-08-14T21:27:12.347Z,42.74
2022-08-14T21:29:53.957Z,42.64
2022-08-14T21:32:47.263Z,42.76
2022-08-14T21:35:23.033Z,43.28
2022-08-14T21:37:52.709Z,43.21
2022-08-14T21:40:40.888Z,42.74
2022-08-14T21:43:18.075Z,43.19
2022-08-14T21:45:53.587Z,43.46
2022-08-14T21:48:25.002Z,43.25
2022-08-14T21:51:01.641Z,43.02
2022-08-14T21:53:58.339Z,43.41
2022-08-14T21:56:37.327Z,43.09
2022-08-14T21:59:17.877Z,43.57
2022-08-14T22:01:59.434Z,43.23
2022-08-14T22:04:33.765Z,43.43
2022-08-14T22:07:07.256Z,43.59
2022-08-14T22:09:36.971Z,43.68
2022-08-14T22:12:08.456Z,44.17
2022-08-14T22:14:43.729Z,43.85
2022-08-14T22:17:16.192Z,43.76
2022-08-14T22:19:54.667Z,43.92
2022-08-14T22:22:26.674Z,44.42
2022-08-14T22:24:59.927Z,43.96
2022-08-14T22:27:32.222Z,44.42
2022-08-14T22:30:03.023Z,44.35
2022-08-14T22:32:56.946Z,44.64
2022-08-14T22:35:23.555Z,44.81
2022-08-14T22:38:34.899Z,44.64
2022-08-14T22:41:14.884Z,45.06
2022-08-14T22:43:35.051Z,44.87
2022-08-14T22:46:06.321Z,44.98
2022-08-14T22:48:45.331Z,44.70
2022-08-14T22:51:16.123Z,44.91
2022-08-14T22:53:51.683Z,45.03
2022-08-14T22:56:29.495Z,44.99
2022-08-14T22:59:01.375Z,44.99
2022-08-14T23:01:56.986Z,44.96
2022-08-14T23:04:35.906Z,44.98
2022-08-14T23:07:22.375Z,44.90
2022-08-14T23:10:31.675Z,44.97
2022-08-14T23:12:54.723Z,45.50
2022-08-14T23:15:29.853Z,45.14
2022-08-14T23:17:59.307Z,45.68
2022-08-14T23:20:29.252Z,45.61
2022-08-14T23:22:58.778Z,45.52
2022-08-14T23:25:44.573Z,46.07
2022-08-14T23:28:34.364Z,45.90
2022-08-14T23:31:14.270Z,46.15
2022-08-14T23:33:51.822Z,46.09
2022-08-14T23:36:32.783Z,46.45
2022-08-14T23:39:12.201Z,46.26
2022-08-14T23:41:53.085Z,46.86
2022-08-14T23:44:24.321Z,46.88
2022-08-14T23:46:57.195Z,46.67
2022-08-14T23:49:59.812Z,47.06
2022-08-14T23:52:50.784Z,46.83
2022-08-14T23:55:11.120Z,46.96
2022-08-14T23:57:43.880Z,47.03
